createdAt,value
2023-05-27T00:00:09.557Z,3.40
2023-05-27T00:02:39.480Z,3.55
2023-05-27T00:05:09.654Z,3.55
2023-05-27T00:07:39.257Z,3.30
2023-05-27T00:10:09.040Z,4.12
2023-05-27T00:12:38.416Z,3.15
2023-05-27T00:15:09.113Z,4.78
2023-05-27T00:17:40.473Z,2.98
2023-05-27T00:20:11.172Z,3.05
2023-05-27T00:22:41.841Z,3.67
2023-05-27T00:25:11.621Z,3.27
2023-05-27T00:27:41.352Z,3.37
2023-05-27T00:30:11.653Z,3.15
2023-05-27T00:32:41.224Z,3.52
2023-05-27T00:35:11.397Z,3.00
2023-05-27T00:37:40.769Z,3.62
2023-05-27T00:40:14.278Z,3.30
2023-05-27T00:42:43.752Z,3.00
2023-05-27T00:45:14.261Z,3.05
2023-05-27T00:47:44.118Z,3.20
2023-05-27T00:50:13.514Z,3.20
2023-05-27T00:52:43.059Z,3.02
2023-05-27T00:55:12.579Z,3.55
2023-05-27T00:57:41.977Z,3.33
2023-05-27T01:00:12.562Z,3.20
2023-05-27T01:02:43.678Z,3.20
2023-05-27T01:05:15.212Z,3.10
2023-05-27T01:07:54.006Z,3.20
2023-05-27T01:10:32.333Z,3.02
2023-05-27T01:13:03.854Z,3.37
2023-05-27T01:15:34.060Z,3.00
2023-05-27T01:18:05.091Z,3.33
2023-05-27T01:20:35.187Z,3.17
2023-05-27T01:23:05.553Z,3.47
2023-05-27T01:25:34.875Z,3.25
2023-05-27T01:28:05.152Z,2.80
2023-05-27T01:30:34.550Z,3.60
2023-05-27T01:33:16.287Z,3.27
2023-05-27T01:35:49.176Z,3.35
2023-05-27T01:38:23.540Z,3.10
2023-05-27T01:40:53.301Z,3.30
2023-05-27T01:43:22.981Z,3.62
2023-05-27T01:45:52.623Z,3.55
2023-05-27T01:48:22.681Z,3.12
2023-05-27T01:50:52.026Z,3.30
2023-05-27T01:53:21.653Z,3.35
2023-05-27T01:55:51.495Z,3.15
2023-05-27T01:58:22.244Z,2.87
2023-05-27T02:00:52.201Z,3.27
2023-05-27T02:03:21.740Z,3.50
2023-05-27T02:05:51.135Z,3.15
2023-05-27T02:08:21.011Z,3.47
2023-05-27T02:10:50.504Z,3.45
2023-05-27T02:13:19.958Z,3.55
2023-05-27T02:15:49.525Z,3.00
2023-05-27T02:18:21.960Z,3.27
2023-05-27T02:20:51.328Z,3.72
2023-05-27T02:23:21.368Z,3.08
2023-05-27T02:25:51.237Z,3.60
2023-05-27T02:28:20.864Z,3.30
2023-05-27T02:30:52.134Z,3.37
2023-05-27T02:33:21.580Z,3.50
2023-05-27T02:35:51.228Z,4.30
2023-05-27T02:38:20.936Z,3.05
2023-05-27T02:40:50.443Z,3.62
2023-05-27T02:43:19.872Z,3.15
2023-05-27T02:45:50.597Z,3.10
2023-05-27T02:48:20.381Z,3.75
2023-05-27T02:50:49.812Z,3.12
2023-05-27T02:53:19.362Z,3.27
2023-05-27T02:55:48.925Z,3.70
2023-05-27T02:58:18.956Z,4.30
2023-05-27T03:00:48.555Z,3.80
2023-05-27T03:03:18.318Z,3.17
2023-05-27T03:05:48.875Z,3.42
2023-05-27T03:08:18.433Z,3.42
2023-05-27T03:10:49.476Z,4.42
2023-05-27T03:13:18.856Z,3.92
2023-05-27T03:15:48.273Z,4.20
2023-05-27T03:18:17.623Z,3.40
2023-05-27T03:20:46.991Z,3.50
2023-05-27T03:23:16.792Z,3.27
2023-05-27T03:25:47.178Z,3.27
2023-05-27T03:28:17.453Z,3.27
2023-05-27T03:30:47.273Z,4.10
2023-05-27T03:33:18.319Z,3.92
2023-05-27T03:35:47.790Z,3.40
2023-05-27T03:38:17.321Z,3.30
2023-05-27T03:40:46.900Z,3.27
2023-05-27T03:43:16.423Z,3.60
2023-05-27T03:45:46.029Z,3.83
2023-05-27T03:48:15.434Z,3.33
2023-05-27T03:50:44.889Z,4.10
2023-05-27T03:53:14.254Z,3.80
2023-05-27T03:55:44.983Z,3.40
2023-05-27T03:58:14.608Z,3.37
2023-05-27T04:00:44.142Z,4.15
2023-05-27T04:03:13.820Z,3.37
2023-05-27T04:05:43.517Z,4.12
2023-05-27T04:08:14.350Z,4.08
2023-05-27T04:10:43.695Z,4.40
2023-05-27T04:13:13.057Z,3.60
2023-05-27T04:15:43.580Z,4.08
2023-05-27T04:18:12.924Z,3.42
2023-05-27T04:20:44.201Z,3.45
2023-05-27T04:23:14.789Z,4.17
2023-05-27T04:25:44.265Z,4.00
2023-05-27T04:28:16.625Z,3.83
2023-05-27T04:30:49.288Z,3.45
2023-05-27T04:33:20.372Z,3.77
2023-05-27T04:35:50.787Z,3.60
2023-05-27T04:38:22.170Z,3.87
2023-05-27T04:40:59.700Z,3.72
2023-05-27T04:43:30.942Z,3.80
2023-05-27T04:46:03.685Z,3.90
2023-05-27T04:48:34.966Z,3.77
2023-05-27T04:51:04.339Z,3.62
2023-05-27T04:53:35.695Z,3.75
2023-05-27T04:56:05.351Z,3.72
2023-05-27T04:58:35.403Z,3.85
2023-05-27T05:01:05.700Z,3.70
2023-05-27T05:03:39.808Z,3.77
2023-05-27T05:06:10.456Z,3.90
2023-05-27T05:08:39.910Z,4.00
2023-05-27T05:11:09.303Z,3.60
2023-05-27T05:13:39.816Z,3.70
2023-05-27T05:16:09.249Z,3.60
2023-05-27T05:18:39.939Z,4.50
2023-05-27T05:21:09.330Z,4.45
2023-05-27T05:23:41.247Z,3.50
2023-05-27T05:26:10.887Z,3.65
2023-05-27T05:28:42.077Z,3.47
2023-05-27T05:31:12.015Z,3.87
2023-05-27T05:33:41.432Z,3.45
2023-05-27T05:36:11.468Z,4.03
2023-05-27T05:39:00.697Z,3.60
2023-05-27T05:41:30.284Z,3.58
2023-05-27T05:43:59.693Z,3.50
2023-05-27T05:46:29.217Z,3.75
2023-05-27T05:48:58.694Z,4.40
2023-05-27T05:51:29.768Z,3.72
2023-05-27T05:54:02.802Z,3.50
2023-05-27T05:56:34.227Z,3.35
2023-05-27T05:59:04.203Z,4.17
2023-05-27T06:01:34.784Z,4.20
2023-05-27T06:04:05.860Z,3.85
2023-05-27T06:06:43.098Z,4.42
2023-05-27T06:09:30.718Z,4.15
2023-05-27T06:12:02.141Z,4.20
2023-05-27T06:14:33.209Z,4.22
2023-05-27T06:17:03.144Z,3.65
2023-05-27T06:19:32.569Z,3.17
2023-05-27T06:22:02.713Z,4.15
2023-05-27T06:24:51.977Z,3.60
2023-05-27T06:27:29.169Z,3.83
2023-05-27T06:29:58.734Z,3.50
2023-05-27T06:32:32.837Z,4.10
2023-05-27T06:35:02.219Z,3.87
2023-05-27T06:37:31.745Z,4.03
2023-05-27T06:40:01.079Z,4.17
2023-05-27T06:42:30.644Z,3.62
2023-05-27T06:45:04.734Z,3.90
2023-05-27T06:47:34.815Z,4.08
2023-05-27T06:50:04.700Z,4.20
2023-05-27T06:52:34.345Z,3.52
2023-05-27T06:55:18.201Z,3.50
2023-05-27T06:58:08.020Z,3.83
2023-05-27T07:00:42.107Z,3.90
2023-05-27T07:03:29.258Z,4.10
2023-05-27T07:05:58.328Z,3.75
2023-05-27T07:08:29.357Z,4.00
2023-05-27T07:11:09.596Z,3.85
2023-05-27T07:13:39.154Z,3.40
2023-05-27T07:16:08.917Z,4.08
2023-05-27T07:18:38.323Z,3.95
2023-05-27T07:21:08.198Z,3.75
2023-05-27T07:23:37.511Z,3.77
2023-05-27T07:26:18.032Z,3.62
2023-05-27T07:28:48.648Z,3.98
2023-05-27T07:31:22.398Z,4.08
2023-05-27T07:33:53.526Z,4.25
2023-05-27T07:36:24.013Z,4.20
2023-05-27T07:38:53.548Z,4.10
2023-05-27T07:41:23.203Z,3.92
2023-05-27T07:43:52.630Z,3.77
2023-05-27T07:46:21.990Z,4.40
2023-05-27T07:48:51.736Z,4.62
2023-05-27T07:51:21.307Z,3.90
2023-05-27T07:53:50.866Z,3.67
2023-05-27T07:56:21.616Z,3.92
2023-05-27T07:58:51.019Z,4.70
2023-05-27T08:01:21.481Z,4.05
2023-05-27T08:03:51.856Z,3.92
2023-05-27T08:06:22.973Z,4.10
2023-05-27T08:08:54.089Z,4.05
2023-05-27T08:11:25.192Z,3.80
2023-05-27T08:13:59.187Z,4.53
2023-05-27T08:16:43.785Z,4.75
2023-05-27T08:19:15.077Z,4.40
2023-05-27T08:21:46.177Z,4.28
2023-05-27T08:24:33.844Z,4.42
2023-05-27T08:27:26.616Z,4.37
2023-05-27T08:30:00.626Z,4.42
2023-05-27T08:32:42.619Z,4.47
2023-05-27T08:35:12.713Z,4.30
2023-05-27T08:37:42.522Z,4.40
2023-05-27T08:40:20.919Z,6.40
2023-05-27T08:42:52.150Z,4.62
2023-05-27T08:45:23.389Z,4.30
2023-05-27T08:47:54.071Z,5.08
2023-05-27T08:50:25.442Z,4.75
2023-05-27T08:52:57.560Z,4.58
2023-05-27T08:55:29.655Z,4.30
2023-05-27T08:58:00.473Z,4.58
2023-05-27T09:00:31.985Z,4.60
2023-05-27T09:03:03.787Z,5.15
2023-05-27T09:05:35.074Z,5.17
2023-05-27T09:08:04.423Z,5.20
2023-05-27T09:10:40.507Z,4.85
2023-05-27T09:13:10.344Z,4.60
2023-05-27T09:15:39.875Z,5.28
2023-05-27T09:18:09.381Z,5.12
2023-05-27T09:20:38.762Z,4.33
2023-05-27T09:23:09.483Z,4.60
2023-05-27T09:25:38.931Z,4.97
2023-05-27T09:28:09.225Z,4.60
2023-05-27T09:30:38.596Z,4.47
2023-05-27T09:33:08.574Z,4.75
2023-05-27T09:35:41.575Z,4.42
2023-05-27T09:38:11.566Z,4.35
2023-05-27T09:40:42.657Z,4.45
2023-05-27T09:43:17.166Z,4.37
2023-05-27T09:45:47.400Z,4.45
2023-05-27T09:48:18.486Z,4.25
2023-05-27T09:50:49.192Z,4.62
2023-05-27T09:53:19.506Z,4.53
2023-05-27T09:55:48.957Z,4.03
2023-05-27T09:58:18.803Z,3.83
2023-05-27T10:00:49.140Z,4.60
2023-05-27T10:03:23.187Z,4.33
2023-05-27T10:05:54.206Z,3.83
2023-05-27T10:08:26.727Z,3.92
2023-05-27T10:10:55.645Z,4.80
2023-05-27T10:13:26.925Z,4.45
2023-05-27T10:15:56.279Z,3.80
2023-05-27T10:18:28.550Z,3.65
2023-05-27T10:21:00.284Z,4.03
2023-05-27T10:23:32.137Z,4.35
2023-05-27T10:26:09.570Z,3.83
2023-05-27T10:28:44.155Z,3.75
2023-05-27T10:31:15.978Z,3.60
2023-05-27T10:36:17.660Z,5.08
2023-05-27T10:38:58.042Z,3.92
2023-05-27T10:41:28.403Z,4.25
2023-05-27T10:44:00.236Z,4.08
2023-05-27T10:46:32.883Z,3.47
2023-05-27T10:49:05.376Z,3.47
2023-05-27T10:51:34.807Z,3.58
2023-05-27T10:56:41.332Z,3.92
2023-05-27T10:59:12.237Z,3.40
2023-05-27T11:01:41.887Z,3.55
2023-05-27T11:04:11.464Z,3.22
2023-05-27T11:06:42.013Z,3.40
2023-05-27T11:09:11.587Z,3.25
2023-05-27T11:11:41.201Z,3.22
2023-05-27T11:14:10.517Z,3.50
2023-05-27T11:16:39.987Z,3.50
2023-05-27T11:19:12.717Z,3.30
2023-05-27T11:21:47.602Z,3.58
2023-05-27T11:24:18.689Z,3.67
2023-05-27T11:26:48.886Z,3.30
2023-05-27T11:29:18.547Z,3.45
2023-05-27T11:31:50.767Z,3.60
2023-05-27T11:34:21.564Z,3.08
2023-05-27T11:36:54.259Z,3.52
2023-05-27T11:39:23.579Z,3.52
2023-05-27T11:41:54.687Z,3.27
2023-05-27T11:44:27.107Z,3.95
2023-05-27T11:47:03.842Z,3.47
2023-05-27T11:49:33.217Z,3.50
2023-05-27T11:52:02.716Z,3.35
2023-05-27T11:54:34.866Z,3.30
2023-05-27T11:57:05.595Z,3.58
2023-05-27T11:59:36.476Z,2.95
2023-05-27T12:02:06.348Z,2.90
2023-05-27T12:04:35.801Z,4.70
2023-05-27T12:07:12.319Z,3.30
2023-05-27T12:09:36.186Z,3.70
2023-05-27T12:12:05.875Z,3.62
2023-05-27T12:14:35.213Z,3.40
2023-05-27T12:17:04.546Z,3.55
2023-05-27T12:19:35.659Z,3.60
2023-05-27T12:22:05.119Z,3.65
2023-05-27T12:24:35.638Z,2.85
2023-05-27T12:27:05.157Z,3.58
2023-05-27T12:29:35.935Z,3.47
2023-05-27T12:32:05.661Z,3.58
2023-05-27T12:34:34.977Z,3.22
2023-05-27T12:37:04.359Z,3.30
2023-05-27T12:39:33.686Z,3.35
2023-05-27T12:42:03.076Z,2.50
2023-05-27T12:44:32.425Z,4.08
2023-05-27T12:47:01.847Z,3.02
2023-05-27T12:49:31.274Z,3.05
2023-05-27T12:52:01.253Z,2.90
2023-05-27T12:54:30.597Z,3.02
2023-05-27T12:57:03.568Z,3.15
2023-05-27T12:59:34.517Z,3.22
2023-05-27T13:02:03.892Z,3.00
2023-05-27T13:04:33.310Z,3.30
2023-05-27T13:07:02.815Z,3.33
2023-05-27T13:09:32.464Z,3.52
2023-05-27T13:12:03.171Z,3.30
2023-05-27T13:14:32.672Z,3.60
2023-05-27T13:17:03.326Z,2.75
2023-05-27T13:19:32.867Z,3.40
2023-05-27T13:22:02.590Z,3.40
2023-05-27T13:24:31.971Z,3.35
2023-05-27T13:27:01.634Z,3.75
2023-05-27T13:29:31.021Z,3.80
2023-05-27T13:32:00.380Z,3.65
2023-05-27T13:34:30.961Z,3.42
2023-05-27T13:37:00.473Z,4.45
2023-05-27T13:39:31.060Z,3.62
2023-05-27T13:42:00.837Z,3.17
2023-05-27T13:44:30.246Z,4.08
2023-05-27T13:46:59.579Z,3.20
2023-05-27T13:49:28.971Z,3.35
2023-05-27T13:51:58.463Z,3.92
2023-05-27T13:54:28.337Z,3.30
2023-05-27T13:56:57.720Z,3.58
2023-05-27T13:59:27.085Z,3.35
2023-05-27T14:01:56.421Z,3.40
2023-05-27T14:04:25.758Z,3.47
2023-05-27T14:06:55.332Z,3.20
2023-05-27T14:09:24.627Z,3.70
2023-05-27T14:11:54.418Z,3.40
2023-05-27T14:14:23.809Z,3.25
2023-05-27T14:16:53.518Z,3.42
2023-05-27T14:19:23.145Z,3.40
2023-05-27T14:21:52.854Z,3.65
2023-05-27T14:24:22.364Z,3.47
2023-05-27T14:26:51.724Z,3.90
2023-05-27T14:29:21.396Z,3.22
2023-05-27T14:31:50.828Z,3.98
2023-05-27T14:34:20.195Z,3.15
2023-05-27T14:36:49.564Z,3.60
2023-05-27T14:39:19.058Z,2.98
2023-05-27T14:41:49.913Z,3.02
2023-05-27T14:44:19.223Z,3.12
2023-05-27T14:46:48.792Z,2.95
2023-05-27T14:49:18.253Z,2.70
2023-05-27T14:51:47.621Z,3.00
2023-05-27T14:54:17.037Z,2.70
2023-05-27T14:56:46.503Z,3.00
2023-05-27T14:59:15.898Z,3.30
2023-05-27T15:01:45.431Z,2.87
2023-05-27T15:04:14.915Z,2.70
2023-05-27T15:06:44.285Z,2.77
2023-05-27T15:09:14.166Z,3.37
2023-05-27T15:11:43.546Z,3.08
2023-05-27T15:14:12.871Z,3.10
2023-05-27T15:16:42.326Z,2.92
2023-05-27T15:19:11.837Z,2.50
2023-05-27T15:21:41.282Z,3.45
2023-05-27T15:24:10.667Z,2.60
2023-05-27T15:26:40.062Z,2.75
2023-05-27T15:29:09.365Z,3.20
2023-05-27T15:31:39.057Z,3.30
2023-05-27T15:34:08.617Z,2.70
2023-05-27T15:36:37.998Z,3.35
2023-05-27T15:39:10.274Z,3.50
2023-05-27T15:41:40.854Z,2.80
2023-05-27T15:44:10.171Z,3.15
2023-05-27T15:46:40.141Z,3.10
2023-05-27T15:49:09.478Z,3.17
2023-05-27T15:51:39.720Z,3.00
2023-05-27T15:54:09.226Z,3.47
2023-05-27T15:56:38.682Z,3.15
2023-05-27T15:59:08.182Z,2.70
2023-05-27T16:01:37.843Z,3.05
2023-05-27T16:04:07.654Z,3.10
2023-05-27T16:06:37.116Z,3.10
2023-05-27T16:09:07.036Z,3.10
2023-05-27T16:11:37.111Z,2.72
2023-05-27T16:14:06.428Z,2.92
2023-05-27T16:16:36.423Z,2.90
2023-05-27T16:19:06.036Z,3.00
2023-05-27T16:21:35.442Z,3.42
2023-05-27T16:24:07.865Z,3.25
2023-05-27T16:26:36.394Z,3.30
2023-05-27T16:29:06.366Z,3.10
2023-05-27T16:31:35.748Z,2.98
2023-05-27T16:34:05.124Z,3.08
2023-05-27T16:36:34.602Z,2.67
2023-05-27T16:39:03.938Z,3.35
2023-05-27T16:41:33.713Z,3.15
2023-05-27T16:44:03.344Z,3.50
2023-05-27T16:46:34.250Z,3.27
2023-05-27T16:49:03.944Z,3.30
2023-05-27T16:51:33.302Z,2.83
2023-05-27T16:54:02.689Z,2.77
2023-05-27T16:56:32.097Z,3.25
2023-05-27T16:59:01.842Z,3.00
2023-05-27T17:01:31.265Z,3.10
2023-05-27T17:04:00.659Z,3.10
2023-05-27T17:06:30.148Z,2.75
2023-05-27T17:08:59.497Z,2.95
2023-05-27T17:11:28.890Z,3.10
2023-05-27T17:13:58.431Z,2.80
2023-05-27T17:16:28.000Z,3.30
2023-05-27T17:18:57.653Z,3.08
2023-05-27T17:21:27.102Z,2.90
2023-05-27T17:23:56.561Z,2.90
2023-05-27T17:26:27.429Z,2.42
2023-05-27T17:28:56.757Z,2.90
2023-05-27T17:31:26.126Z,2.77
2023-05-27T17:33:56.094Z,2.95
2023-05-27T17:36:25.556Z,3.42
2023-05-27T17:38:55.311Z,2.90
2023-05-27T17:41:25.219Z,2.52
2023-05-27T17:43:54.634Z,2.60
2023-05-27T17:46:24.750Z,3.25
2023-05-27T17:48:54.171Z,3.27
2023-05-27T17:51:23.494Z,3.10
2023-05-27T17:53:54.538Z,2.85
2023-05-27T17:56:24.304Z,3.05
2023-05-27T17:58:53.921Z,3.25
2023-05-27T18:01:23.301Z,2.50
2023-05-27T18:03:52.726Z,3.40
2023-05-27T18:06:22.050Z,3.20
2023-05-27T18:08:51.396Z,3.67
2023-05-27T18:11:20.784Z,3.25
2023-05-27T18:13:50.133Z,3.33
2023-05-27T18:16:19.553Z,3.60
2023-05-27T18:18:48.932Z,3.47
2023-05-27T18:21:18.436Z,3.50
2023-05-27T18:23:48.040Z,3.62
2023-05-27T18:26:17.461Z,3.75
2023-05-27T18:28:46.782Z,3.77
2023-05-27T18:31:16.152Z,3.67
2023-05-27T18:33:45.737Z,3.40
2023-05-27T18:36:15.170Z,3.87
2023-05-27T18:38:44.499Z,3.80
2023-05-27T18:41:13.967Z,4.08
2023-05-27T18:43:43.296Z,3.70
2023-05-27T18:46:12.686Z,3.72
2023-05-27T18:48:42.139Z,3.50
2023-05-27T18:51:11.967Z,4.03
2023-05-27T18:53:43.093Z,3.90
2023-05-27T18:56:13.758Z,3.35
2023-05-27T18:58:43.149Z,3.55
2023-05-27T19:01:14.589Z,3.62
2023-05-27T19:03:44.123Z,4.15
2023-05-27T19:06:13.662Z,4.00
2023-05-27T19:08:43.041Z,4.15
2023-05-27T19:11:12.789Z,4.30
2023-05-27T19:13:42.167Z,5.17
2023-05-27T19:16:11.644Z,4.12
2023-05-27T19:18:41.115Z,4.00
2023-05-27T19:21:10.924Z,4.50
2023-05-27T19:23:41.502Z,4.60
2023-05-27T19:26:11.297Z,4.15
2023-05-27T19:28:42.103Z,4.83
2023-05-27T19:31:12.826Z,4.35
2023-05-27T19:33:42.297Z,3.95
2023-05-27T19:36:12.244Z,4.45
2023-05-27T19:38:41.861Z,4.30
2023-05-27T19:41:11.290Z,4.37
2023-05-27T19:43:40.613Z,4.70
2023-05-27T19:46:09.999Z,5.25
2023-05-27T19:48:39.289Z,5.15
2023-05-27T19:51:09.822Z,4.78
2023-05-27T19:53:43.211Z,4.83
2023-05-27T19:56:12.626Z,4.67
2023-05-27T19:58:43.311Z,4.90
2023-05-27T20:01:12.718Z,4.83
2023-05-27T20:03:42.232Z,5.25
2023-05-27T20:06:13.714Z,4.80
2023-05-27T20:08:44.111Z,4.50
2023-05-27T20:11:13.517Z,5.12
2023-05-27T20:13:42.912Z,5.00
2023-05-27T20:16:14.200Z,5.28
2023-05-27T20:18:44.516Z,5.70
2023-05-27T20:21:14.099Z,4.95
2023-05-27T20:23:43.529Z,5.65
2023-05-27T20:26:12.889Z,5.33
2023-05-27T20:28:42.237Z,5.47
2023-05-27T20:31:13.599Z,5.60
2023-05-27T20:33:43.123Z,5.53
2023-05-27T20:36:12.463Z,5.70
2023-05-27T20:38:42.188Z,5.70
2023-05-27T20:41:11.709Z,5.45
2023-05-27T20:43:42.786Z,6.25
2023-05-27T20:46:12.151Z,5.70
2023-05-27T20:48:41.636Z,5.42
2023-05-27T20:51:11.136Z,5.58
2023-05-27T20:53:40.770Z,6.08
2023-05-27T20:56:10.129Z,5.80
2023-05-27T20:58:39.608Z,5.65
2023-05-27T21:01:08.980Z,5.67
2023-05-27T21:03:38.519Z,5.55
2023-05-27T21:06:08.196Z,5.75
2023-05-27T21:08:37.542Z,5.37
2023-05-27T21:11:06.869Z,5.42
2023-05-27T21:13:36.321Z,5.58
2023-05-27T21:16:07.096Z,6.00
2023-05-27T21:18:37.146Z,5.60
2023-05-27T21:21:09.703Z,5.83
2023-05-27T21:23:39.125Z,6.22
2023-05-27T21:26:09.065Z,7.03
2023-05-27T21:28:39.748Z,6.05
2023-05-27T21:31:09.183Z,6.45
2023-05-27T21:33:38.553Z,6.42
2023-05-27T21:36:08.344Z,7.10
2023-05-27T21:38:38.986Z,6.20
2023-05-27T21:41:08.575Z,6.42
2023-05-27T21:43:38.030Z,6.40
2023-05-27T21:46:07.344Z,6.05
2023-05-27T21:48:36.859Z,6.78
2023-05-27T21:51:06.509Z,5.95
2023-05-27T21:53:35.871Z,7.00
2023-05-27T21:56:05.441Z,6.87
2023-05-27T21:58:34.767Z,7.30
2023-05-27T22:01:04.618Z,6.30
2023-05-27T22:03:34.236Z,6.75
2023-05-27T22:06:03.846Z,7.25
2023-05-27T22:08:33.585Z,6.67
2023-05-27T22:11:03.885Z,7.12
2023-05-27T22:13:33.327Z,6.80
2023-05-27T22:16:03.144Z,6.60
2023-05-27T22:18:32.909Z,7.30
2023-05-27T22:21:02.223Z,6.87
2023-05-27T22:23:31.694Z,6.72
2023-05-27T22:26:01.178Z,7.42
2023-05-27T22:28:30.936Z,7.62
2023-05-27T22:31:00.456Z,7.20
2023-05-27T22:33:29.862Z,7.90
2023-05-27T22:35:59.815Z,7.45
2023-05-27T22:38:29.137Z,7.22
2023-05-27T22:40:58.498Z,7.45
2023-05-27T22:43:27.818Z,6.83
2023-05-27T22:45:57.176Z,6.65
2023-05-27T22:48:26.587Z,7.47
2023-05-27T22:50:56.309Z,7.25
2023-05-27T22:53:25.722Z,7.42
2023-05-27T22:55:55.335Z,6.92
2023-05-27T22:58:24.971Z,7.08
2023-05-27T23:00:54.348Z,7.42
2023-05-27T23:03:23.832Z,7.00
2023-05-27T23:05:53.574Z,7.55
2023-05-27T23:08:23.353Z,8.20
2023-05-27T23:10:52.786Z,7.95
2023-05-27T23:13:22.119Z,7.75
2023-05-27T23:15:53.628Z,7.62
2023-05-27T23:18:23.206Z,8.60
2023-05-27T23:20:52.578Z,7.85
2023-05-27T23:23:21.922Z,8.03
2023-05-27T23:25:52.278Z,8.00
2023-05-27T23:28:21.819Z,8.63
2023-05-27T23:30:53.012Z,8.78
2023-05-27T23:33:22.410Z,8.03
2023-05-27T23:35:51.897Z,7.85
2023-05-27T23:38:21.485Z,7.87
2023-05-27T23:40:51.951Z,9.15
2023-05-27T23:43:21.346Z,9.73
2023-05-27T23:45:51.052Z,9.45
2023-05-27T23:48:20.728Z,9.35
2023-05-27T23:50:50.868Z,9.28
2023-05-27T23:53:20.329Z,9.80
2023-05-27T23:55:52.025Z,9.40
2023-05-27T23:58:21.713Z,10.20
